Terminal Aerodrome Forecast
Issued by NWS

Home | Current Version | Previous Version | Text Only | Print | Product List | Glossary On
Versions: 1 2 3 4 5 6 7 8 9 10 11 12 13 14 15 16 17 18 19 20 21 22 23 24 25 26 27 28
000
FTUS43 KMKX 292320
TAFUES
TAF
KUES 292320Z 3000/3024 04012G20KT 6SM -RA OVC060
     FM300100 05014G26KT 4SM RA OVC060
     FM300300 06015G27KT 4SM RA OVC015
     FM300900 06015G24KT P6SM VCSH OVC005
     FM301300 06014G23KT 6SM -SHRA OVC005=

USA.gov is the U.S. government's official web portal to all federal, state and local government web resources and services.